Time;durP1;ratioP1;P1;durP2;ratioP2;P2;SDS_P1;SDS_P2;PMS_P1;PMS_P2;Temp;Humidity;BMP_temperature;BMP_pressure;BME280_temperature;BME280_humidity;BME280_pressure;Samples;Min_cycle;Max_cycle;Signal;HPM_P1;HPM_P2
2021/07/30 00:00:46;;;;;;;7.85;3.70;;;11.30;97.00;;;;;;4975951;28;20384;-69
2021/07/30 00:03:13;;;;;;;7.70;3.38;;;11.40;96.40;;;;;;4974857;28;20338;-70
2021/07/30 00:05:43;;;;;;;7.70;3.30;;;11.50;96.00;;;;;;4976097;28;20034;-69
2021/07/30 00:08:11;;;;;;;8.02;3.95;;;11.60;96.00;;;;;;4974621;28;20150;-69
2021/07/30 00:10:38;;;;;;;7.43;3.90;;;11.60;95.70;;;;;;4975929;28;20081;-69
2021/07/30 00:13:05;;;;;;;8.27;3.63;;;11.60;95.20;;;;;;4975493;28;20045;-69
2021/07/30 00:15:32;;;;;;;9.82;4.68;;;11.70;95.00;;;;;;4974300;28;20023;-69
2021/07/30 00:18:00;;;;;;;8.18;3.50;;;11.70;95.10;;;;;;4974263;28;20030;-71
2021/07/30 00:20:28;;;;;;;8.48;3.65;;;11.80;94.80;;;;;;4958341;28;20058;-71
2021/07/30 00:22:55;;;;;;;8.80;3.78;;;11.90;94.90;;;;;;4975542;28;20082;-71
2021/07/30 00:25:22;;;;;;;7.78;3.65;;;12.00;94.40;;;;;;4975579;28;20053;-69
2021/07/30 00:27:50;;;;;;;7.75;3.78;;;12.00;94.60;;;;;;4975416;28;20030;-69
2021/07/30 00:30:17;;;;;;;7.70;3.70;;;12.20;94.90;;;;;;4974025;28;20077;-70
2021/07/30 00:32:44;;;;;;;6.18;3.30;;;12.20;94.60;;;;;;4975355;28;20476;-68
2021/07/30 00:35:12;;;;;;;10.52;3.45;;;12.30;94.40;;;;;;4974140;28;20106;-70
2021/07/30 00:37:40;;;;;;;6.32;2.95;;;12.40;93.50;;;;;;4975390;28;20022;-71
2021/07/30 00:40:08;;;;;;;10.40;4.43;;;12.40;93.30;;;;;;4975472;28;20101;-69
2021/07/30 00:42:36;;;;;;;6.20;3.72;;;12.50;93.60;;;;;;4975267;28;20069;-68
2021/07/30 00:45:04;;;;;;;7.50;3.40;;;12.60;93.60;;;;;;4974019;28;20130;-70
2021/07/30 00:47:32;;;;;;;8.45;4.13;;;12.60;93.20;;;;;;4975416;28;20026;-70
2021/07/30 00:50:00;;;;;;;9.27;4.13;;;12.70;93.50;;;;;;4975241;28;20023;-68
2021/07/30 00:52:28;;;;;;;7.30;3.13;;;12.80;93.80;;;;;;4973950;28;20122;-66
2021/07/30 00:54:56;;;;;;;7.28;4.10;;;12.80;92.70;;;;;;4975422;28;20029;-67
2021/07/30 00:57:24;;;;;;;9.70;3.90;;;12.90;92.90;;;;;;4975002;28;20031;-68
2021/07/30 00:59:53;;;;;;;5.72;3.88;;;13.00;92.80;;;;;;4974858;28;20207;-71
2021/07/30 01:02:20;;;;;;;5.85;3.30;;;13.10;92.40;;;;;;4973702;28;20113;-70
2021/07/30 01:04:48;;;;;;;6.47;3.65;;;13.20;92.00;;;;;;4974862;28;20034;-67
2021/07/30 01:07:15;;;;;;;5.93;3.28;;;13.30;91.60;;;;;;4974733;28;20039;-69
2021/07/30 01:09:43;;;;;;;8.15;3.40;;;13.40;92.40;;;;;;4974643;28;20044;-68
2021/07/30 01:12:12;;;;;;;6.30;3.10;;;13.40;91.60;;;;;;4974628;28;20070;-69
2021/07/30 01:14:39;;;;;;;8.00;3.42;;;13.40;91.40;;;;;;4974671;28;20387;-69
2021/07/30 01:17:07;;;;;;;7.88;3.10;;;13.50;91.50;;;;;;4974455;28;20109;-68
2021/07/30 01:19:34;;;;;;;10.30;3.55;;;13.50;91.70;;;;;;4973292;28;20546;-68
2021/07/30 01:22:21;;;;;;;4.90;2.97;;;13.60;92.20;;;;;;4974450;28;20026;-69
2021/07/30 01:24:52;;;;;;;4.10;3.00;;;13.80;92.00;;;;;;4974617;28;20033;-68
2021/07/30 01:27:21;;;;;;;7.15;3.20;;;13.90;91.50;;;;;;4974591;28;20054;-68
2021/07/30 01:29:49;;;;;;;8.18;3.63;;;14.00;92.20;;;;;;4972949;28;20026;-69
2021/07/30 01:32:17;;;;;;;6.13;3.28;;;14.20;90.00;;;;;;4974332;28;20026;-69
2021/07/30 01:34:44;;;;;;;8.15;2.97;;;14.20;87.80;;;;;;4974409;28;20038;-69
2021/07/30 01:37:12;;;;;;;6.18;2.85;;;14.20;86.50;;;;;;4974223;28;20615;-69
2021/07/30 01:39:40;;;;;;;4.20;2.90;;;14.40;89.10;;;;;;4974264;28;20015;-69
2021/07/30 01:42:07;;;;;;;4.25;2.97;;;14.50;87.70;;;;;;4974347;28;20435;-70
2021/07/30 01:44:34;;;;;;;5.57;2.83;;;14.70;87.40;;;;;;4974708;28;20077;-71
2021/07/30 01:47:02;;;;;;;4.60;2.75;;;14.70;85.10;;;;;;4974155;28;20502;-68
2021/07/30 01:49:29;;;;;;;5.65;2.75;;;14.70;83.90;;;;;;4974123;28;20023;-68
2021/07/30 01:51:56;;;;;;;4.95;2.42;;;14.80;85.30;;;;;;4972931;28;20558;-70
2021/07/30 01:54:24;;;;;;;5.35;2.55;;;14.90;83.90;;;;;;4974356;28;20030;-67
2021/07/30 01:56:52;;;;;;;7.30;2.92;;;15.00;84.50;;;;;;4972981;28;20142;-68
2021/07/30 01:59:20;;;;;;;6.90;2.85;;;15.00;83.80;;;;;;4972911;28;20019;-69
2021/07/30 02:01:47;;;;;;;4.10;2.47;;;15.00;84.40;;;;;;4974336;28;20023;-68
2021/07/30 02:04:18;;;;;;;6.05;3.45;;;15.10;85.40;;;;;;4974189;28;20034;-69
2021/07/30 02:06:45;;;;;;;;;;;15.30;85.00;;;;;;4973476;28;20027;-69
2021/07/30 02:09:12;;;;;;;4.65;2.80;;;15.50;85.10;;;;;;4974163;28;19910;-68
2021/07/30 02:11:44;;;;;;;5.10;3.53;;;15.50;83.50;;;;;;4972533;28;20070;-69
2021/07/30 02:14:17;;;;;;;5.38;3.45;;;15.50;84.30;;;;;;4974215;28;20027;-68
2021/07/30 02:16:50;;;;;;;6.75;3.60;;;15.60;84.50;;;;;;4975642;28;20105;-69
2021/07/30 02:19:18;;;;;;;4.95;3.40;;;15.70;83.30;;;;;;4976792;28;20081;-66
2021/07/30 02:21:47;;;;;;;7.60;4.13;;;15.70;83.10;;;;;;4977906;28;20031;-67
2021/07/30 02:24:15;;;;;;;5.35;3.10;;;15.70;84.50;;;;;;4976508;28;20019;-68
2021/07/30 02:26:42;;;;;;;5.40;3.13;;;15.90;85.90;;;;;;4976288;28;20373;-67
2021/07/30 02:29:10;;;;;;;5.53;2.80;;;16.10;84.40;;;;;;4977944;28;20036;-68
2021/07/30 02:31:38;;;;;;;5.78;3.10;;;16.00;82.40;;;;;;4977677;28;20023;-68
2021/07/30 02:34:05;;;;;;;6.43;3.30;;;16.20;83.20;;;;;;4977632;28;20030;-67
2021/07/30 02:36:32;;;;;;;4.90;2.83;;;16.20;82.50;;;;;;4977583;28;20395;-66
2021/07/30 02:39:00;;;;;;;5.90;3.55;;;16.30;83.10;;;;;;4976080;28;20026;-68
2021/07/30 02:41:27;;;;;;;3.63;2.80;;;16.30;82.70;;;;;;4977438;28;20498;-68
2021/07/30 02:43:59;;;;;;;4.85;2.70;;;16.30;83.50;;;;;;4976074;28;20043;-68
2021/07/30 02:46:27;;;;;;;4.35;2.67;;;16.40;83.40;;;;;;4977470;28;20154;-70
2021/07/30 02:48:54;;;;;;;3.65;2.97;;;16.40;83.90;;;;;;4977354;28;20031;-67
2021/07/30 02:51:22;;;;;;;8.13;3.08;;;16.50;84.40;;;;;;4977823;28;20022;-68
2021/07/30 02:53:49;;;;;;;5.65;3.50;;;16.60;85.90;;;;;;4977665;28;20023;-68
2021/07/30 02:56:16;;;;;;;5.75;3.35;;;16.40;87.20;;;;;;4975902;28;20031;-68
2021/07/30 02:58:44;;;;;;;6.65;3.70;;;16.30;87.20;;;;;;4975802;28;20114;-67
2021/07/30 03:01:11;;;;;;;6.95;3.22;;;16.50;88.50;;;;;;4977277;28;20480;-66
2021/07/30 03:03:38;;;;;;;6.13;2.92;;;16.60;88.80;;;;;;4977033;28;20080;-67
2021/07/30 03:06:05;;;;;;;7.47;3.25;;;16.60;88.00;;;;;;4977227;28;20109;-68
2021/07/30 03:08:33;;;;;;;7.18;3.08;;;16.50;88.90;;;;;;4976997;28;20109;-68
2021/07/30 03:11:00;;;;;;;9.35;3.95;;;16.60;89.90;;;;;;4977027;28;20105;-69
2021/07/30 03:13:28;;;;;;;6.68;3.67;;;16.60;89.20;;;;;;4976704;28;20050;-69
2021/07/30 03:15:56;;;;;;;7.28;3.40;;;16.60;88.90;;;;;;4976968;28;20063;-70
2021/07/30 03:18:26;;;;;;;6.80;3.53;;;16.70;89.00;;;;;;4975691;28;20113;-70
2021/07/30 03:20:53;;;;;;;8.45;3.38;;;16.70;90.10;;;;;;4977462;28;20502;-70
2021/07/30 03:23:21;;;;;;;7.80;3.20;;;16.60;89.60;;;;;;4976720;28;20116;-70
2021/07/30 03:25:48;;;;;;;5.78;2.80;;;16.60;90.40;;;;;;4976738;28;20427;-68
2021/07/30 03:28:16;;;;;;;10.20;3.20;;;16.80;90.40;;;;;;4974156;28;20023;-70
2021/07/30 03:30:43;;;;;;;8.32;3.50;;;16.90;90.40;;;;;;4976641;28;20019;-69
2021/07/30 03:33:10;;;;;;;6.78;3.10;;;17.00;90.20;;;;;;4976767;28;20030;-69
2021/07/30 03:35:38;;;;;;;6.65;3.38;;;16.90;90.10;;;;;;4976442;28;20033;-70
2021/07/30 03:38:05;;;;;;;6.38;3.00;;;16.90;89.70;;;;;;4975198;28;20113;-68
2021/07/30 03:40:33;;;;;;;5.60;2.83;;;16.90;89.90;;;;;;4976425;28;20027;-70
2021/07/30 03:43:00;;;;;;;5.68;3.67;;;16.80;90.60;;;;;;4976397;28;20027;-69
2021/07/30 03:45:27;;;;;;;5.28;3.00;;;16.60;90.20;;;;;;4976341;28;20082;-69
2021/07/30 03:47:55;;;;;;;5.30;3.50;;;16.60;90.40;;;;;;4976119;28;20027;-69
2021/07/30 03:50:22;;;;;;;3.80;2.92;;;16.60;90.40;;;;;;4976309;28;20341;-66
2021/07/30 03:52:49;;;;;;;8.57;3.85;;;16.70;91.00;;;;;;4976022;28;20022;-68
2021/07/30 03:55:17;;;;;;;3.53;3.00;;;16.70;90.60;;;;;;4976267;28;20057;-67
2021/07/30 03:57:44;;;;;;;6.00;3.42;;;16.80;91.10;;;;;;4975830;28;20030;-67
2021/07/30 04:00:12;;;;;;;7.97;3.97;;;16.70;90.90;;;;;;4974577;28;20030;-70
2021/07/30 04:02:40;;;;;;;4.55;3.35;;;16.70;91.00;;;;;;4975909;28;20019;-69
2021/07/30 04:05:08;;;;;;;6.72;3.53;;;16.60;91.10;;;;;;4976068;28;20029;-69
2021/07/30 04:07:35;;;;;;;5.90;3.67;;;16.50;91.10;;;;;;4975874;28;20511;-69
2021/07/30 04:10:03;;;;;;;5.50;3.28;;;16.50;91.10;;;;;;4975735;28;20444;-70
2021/07/30 04:12:30;;;;;;;4.75;3.13;;;16.40;91.20;;;;;;4975331;28;20105;-70
2021/07/30 04:14:58;;;;;;;7.22;3.40;;;16.40;91.20;;;;;;4974230;28;20030;-70
2021/07/30 04:17:25;;;;;;;4.72;3.13;;;16.50;91.40;;;;;;4974116;28;20109;-69
2021/07/30 04:19:52;;;;;;;4.80;3.20;;;16.40;91.50;;;;;;4975575;28;20105;-70
2021/07/30 04:22:19;;;;;;;5.32;2.80;;;16.30;91.70;;;;;;4975640;28;20097;-67
2021/07/30 04:24:47;;;;;;;4.85;3.00;;;16.40;91.80;;;;;;4975649;28;20475;-67
2021/07/30 04:27:15;;;;;;;5.75;2.80;;;16.30;91.90;;;;;;4975708;28;20483;-70
2021/07/30 04:29:43;;;;;;;4.03;3.10;;;16.40;91.90;;;;;;4974203;28;20027;-68
2021/07/30 04:32:11;;;;;;;4.57;3.17;;;16.40;92.00;;;;;;4974045;28;20391;-69
2021/07/30 04:34:39;;;;;;;5.07;3.10;;;16.40;92.10;;;;;;4975446;28;20503;-69
2021/07/30 04:37:07;;;;;;;7.88;2.95;;;16.30;92.60;;;;;;4975196;28;20522;-68
2021/07/30 04:39:35;;;;;;;3.30;3.00;;;16.20;92.40;;;;;;4975141;28;20038;-69
2021/07/30 04:42:04;;;;;;;7.63;3.00;;;16.00;92.30;;;;;;4975364;28;20031;-70
2021/07/30 04:44:33;;;;;;;4.25;2.78;;;16.00;92.90;;;;;;4975284;28;20027;-74
2021/07/30 04:47:02;;;;;;;6.18;2.80;;;16.00;92.80;;;;;;4975650;28;20356;-71
2021/07/30 04:49:29;;;;;;;5.93;2.83;;;16.00;93.20;;;;;;4975600;28;20369;-70
2021/07/30 04:51:57;;;;;;;4.85;3.38;;;15.90;93.50;;;;;;4974127;28;20034;-70
2021/07/30 04:54:24;;;;;;;6.20;3.03;;;15.80;93.80;;;;;;4975115;28;20142;-72
2021/07/30 04:56:51;;;;;;;7.82;3.30;;;15.70;93.80;;;;;;4975282;28;20447;-70
2021/07/30 04:59:18;;;;;;;4.72;2.97;;;15.70;94.00;;;;;;4975265;28;20498;-69
2021/07/30 05:01:46;;;;;;;5.97;3.05;;;15.70;94.50;;;;;;4975222;28;20592;-70
2021/07/30 05:04:13;;;;;;;4.75;3.20;;;15.60;94.30;;;;;;4975090;28;20102;-72
2021/07/30 05:06:40;;;;;;;6.55;2.92;;;15.60;94.40;;;;;;4975164;28;20115;-72
2021/07/30 05:09:08;;;;;;;4.07;3.10;;;15.60;94.50;;;;;;4973996;28;20031;-69
2021/07/30 05:11:35;;;;;;;5.82;3.20;;;15.50;94.50;;;;;;4973526;28;20054;-69
2021/07/30 05:14:02;;;;;;;5.28;2.85;;;15.40;94.80;;;;;;4975124;28;20027;-69
2021/07/30 05:16:30;;;;;;;4.80;3.00;;;15.40;95.20;;;;;;4974848;28;20494;-69
2021/07/30 05:18:57;;;;;;;6.20;3.50;;;15.40;95.40;;;;;;4975444;28;20085;-69
2021/07/30 05:21:28;;;;;;;6.30;3.05;;;15.40;95.70;;;;;;4973961;28;20057;-69
2021/07/30 05:23:58;;;;;;;5.28;3.17;;;15.40;95.80;;;;;;4974839;28;20502;-71
2021/07/30 05:26:26;;;;;;;5.47;3.38;;;15.40;95.70;;;;;;4974633;28;20423;-70
2021/07/30 05:28:53;;;;;;;6.05;3.10;;;15.30;95.60;;;;;;4975112;28;20034;-70
2021/07/30 05:31:20;;;;;;;5.53;2.97;;;15.30;95.80;;;;;;4975654;28;20130;-69
2021/07/30 05:33:48;;;;;;;12.88;3.25;;;15.30;95.50;;;;;;4975870;28;20030;-70
2021/07/30 05:36:16;;;;;;;4.80;2.80;;;15.30;95.50;;;;;;4974718;28;20030;-70
2021/07/30 05:38:44;;;;;;;7.10;3.10;;;15.30;95.60;;;;;;4974695;28;20019;-70
2021/07/30 05:41:13;;;;;;;5.63;3.13;;;15.30;95.90;;;;;;4974868;28;20023;-69
2021/07/30 05:43:41;;;;;;;5.85;2.95;;;15.30;96.10;;;;;;4974955;28;20055;-72
2021/07/30 05:46:10;;;;;;;6.10;3.58;;;15.20;96.40;;;;;;4974786;28;20061;-71
2021/07/30 05:48:37;;;;;;;6.28;3.40;;;15.20;96.60;;;;;;4974779;28;20065;-71
2021/07/30 05:51:05;;;;;;;6.03;3.22;;;15.20;96.70;;;;;;4974014;28;20026;-71
2021/07/30 05:53:32;;;;;;;5.13;2.85;;;15.10;97.10;;;;;;4974748;28;20034;-70
2021/07/30 05:56:01;;;;;;;4.10;3.28;;;15.10;97.60;;;;;;4974561;28;20023;-70
2021/07/30 05:58:28;;;;;;;5.75;3.75;;;15.00;97.50;;;;;;4974791;28;20019;-69
2021/07/30 06:00:55;;;;;;;4.15;3.05;;;15.00;97.30;;;;;;4974428;28;20452;-69
2021/07/30 06:03:23;;;;;;;4.93;3.40;;;14.90;97.60;;;;;;4974539;28;20462;-70
2021/07/30 06:05:50;;;;;;;7.00;3.22;;;14.90;97.60;;;;;;4974438;28;20395;-70
2021/07/30 06:08:17;;;;;;;7.25;2.95;;;14.80;98.00;;;;;;4974640;28;20399;-70
2021/07/30 06:10:45;;;;;;;6.65;3.28;;;14.80;97.90;;;;;;4974495;28;20023;-71
2021/07/30 06:13:12;;;;;;;7.18;3.72;;;14.70;98.10;;;;;;4974294;28;20051;-70
2021/07/30 06:15:40;;;;;;;5.10;3.20;;;14.70;98.40;;;;;;4974808;28;20487;-70
2021/07/30 06:18:07;;;;;;;5.45;3.30;;;14.60;98.80;;;;;;4974515;28;20027;-70
2021/07/30 06:20:35;;;;;;;6.13;3.10;;;14.50;99.10;;;;;;4974510;28;20042;-69
2021/07/30 06:23:02;;;;;;;6.30;2.88;;;14.50;99.20;;;;;;4974567;28;20109;-71
2021/07/30 06:25:29;;;;;;;7.60;3.50;;;14.40;99.60;;;;;;4974252;28;20027;-70
2021/07/30 06:27:57;;;;;;;4.85;3.33;;;14.30;99.90;;;;;;4973301;28;20081;-69
2021/07/30 06:30:25;;;;;;;7.32;3.55;;;14.20;99.90;;;;;;4974240;28;20117;-69
2021/07/30 06:32:52;;;;;;;7.10;3.60;;;14.10;99.90;;;;;;4974437;28;20043;-68
2021/07/30 06:35:20;;;;;;;4.28;3.75;;;14.00;99.90;;;;;;4973789;28;20031;-69
2021/07/30 06:37:48;;;;;;;7.85;4.32;;;13.90;99.90;;;;;;4974411;28;20023;-68
2021/07/30 06:40:16;;;;;;;5.60;3.20;;;13.80;99.90;;;;;;4974432;28;20019;-68
2021/07/30 06:42:43;;;;;;;6.63;4.15;;;13.70;99.90;;;;;;4974573;28;20055;-69
2021/07/30 06:45:11;;;;;;;7.15;3.80;;;13.70;99.90;;;;;;4974620;28;20023;-71
2021/07/30 06:47:38;;;;;;;6.22;3.58;;;13.60;99.90;;;;;;4974219;28;20054;-68
2021/07/30 06:50:06;;;;;;;11.32;6.03;;;13.50;99.90;;;;;;4974121;28;20046;-69
2021/07/30 06:52:34;;;;;;;4.68;3.78;;;13.40;99.90;;;;;;4974419;28;20464;-69
2021/07/30 06:55:01;;;;;;;6.30;4.30;;;13.30;99.90;;;;;;4972931;28;20031;-70
2021/07/30 06:57:28;;;;;;;5.03;4.15;;;13.20;99.90;;;;;;4974045;28;20400;-69
2021/07/30 06:59:57;;;;;;;6.50;5.90;;;13.20;99.90;;;;;;4972866;28;20034;-68
2021/07/30 07:02:25;;;;;;;9.25;5.30;;;13.10;99.90;;;;;;4974899;28;20027;-69
2021/07/30 07:04:52;;;;;;;5.40;4.90;;;13.00;99.90;;;;;;4977795;28;20057;-69
2021/07/30 07:07:19;;;;;;;9.35;7.43;;;12.90;99.90;;;;;;4977464;28;20027;-69
2021/07/30 07:09:46;;;;;;;7.05;5.00;;;12.80;99.90;;;;;;4977614;28;20034;-70
2021/07/30 07:12:14;;;;;;;5.97;5.10;;;12.70;99.90;;;;;;4975860;28;20404;-69
2021/07/30 07:14:41;;;;;;;7.75;5.03;;;12.60;99.90;;;;;;4976026;28;20035;-70
2021/07/30 07:17:08;;;;;;;8.38;4.97;;;12.50;99.90;;;;;;4975750;28;20081;-70
2021/07/30 07:19:36;;;;;;;8.95;5.43;;;12.40;99.90;;;;;;4976232;28;20122;-68
2021/07/30 07:22:04;;;;;;;19.67;17.58;;;12.40;99.90;;;;;;4977292;28;20030;-69
2021/07/30 07:24:31;;;;;;;14.88;12.00;;;12.30;99.90;;;;;;4977411;28;20027;-70
2021/07/30 07:26:59;;;;;;;14.23;12.73;;;12.20;99.90;;;;;;4977164;28;20054;-69
2021/07/30 07:29:27;;;;;;;7.15;6.20;;;12.10;99.90;;;;;;4976879;28;20105;-70
2021/07/30 07:31:54;;;;;;;8.02;7.07;;;12.10;99.90;;;;;;4976965;28;20031;-70
2021/07/30 07:34:21;;;;;;;7.55;6.82;;;12.00;99.90;;;;;;4977100;28;20523;-70
2021/07/30 07:36:49;;;;;;;9.20;7.88;;;12.00;99.90;;;;;;4976800;28;20114;-70
2021/07/30 07:39:16;;;;;;;10.77;9.77;;;11.90;99.90;;;;;;4976848;28;20412;-69
2021/07/30 07:41:47;;;;;;;14.25;12.15;;;11.90;99.90;;;;;;4976919;28;20022;-70
2021/07/30 07:44:15;;;;;;;10.63;9.65;;;11.80;99.90;;;;;;4976969;28;20023;-69
2021/07/30 07:46:44;;;;;;;13.07;11.38;;;11.80;99.90;;;;;;4977412;28;20027;-69
2021/07/30 07:49:11;;;;;;;18.30;16.48;;;11.80;99.90;;;;;;4976826;28;20111;-69
2021/07/30 07:51:38;;;;;;;9.65;7.82;;;11.70;99.90;;;;;;4976929;28;20428;-70
2021/07/30 07:54:06;;;;;;;11.23;8.20;;;11.70;99.90;;;;;;4976885;28;20029;-70
2021/07/30 07:56:34;;;;;;;7.95;5.40;;;11.70;99.90;;;;;;4976435;28;20084;-70
2021/07/30 07:59:02;;;;;;;11.90;7.43;;;11.70;99.90;;;;;;4959516;28;20030;-71
2021/07/30 08:01:29;;;;;;;24.33;14.63;;;11.70;99.90;;;;;;4976376;28;20073;-70
2021/07/30 08:03:57;;;;;;;27.05;20.13;;;11.60;99.90;;;;;;4975916;28;20023;-70
2021/07/30 08:06:24;;;;;;;24.98;17.02;;;11.60;99.90;;;;;;4975856;28;20353;-72
2021/07/30 08:08:51;;;;;;;18.85;12.50;;;11.50;99.90;;;;;;4975769;28;20117;-70
2021/07/30 08:11:19;;;;;;;18.92;15.23;;;11.50;99.90;;;;;;4975397;28;20081;-69
2021/07/30 08:13:46;;;;;;;23.50;15.48;;;11.40;99.90;;;;;;4973541;28;20030;-69
2021/07/30 08:16:14;;;;;;;21.92;16.45;;;11.40;99.90;;;;;;4975508;28;20022;-69
2021/07/30 08:18:41;;;;;;;50.30;41.00;;;11.40;99.90;;;;;;4975486;28;20031;-69
2021/07/30 08:21:09;;;;;;;101.15;89.53;;;11.30;99.90;;;;;;4975568;28;20026;-69
2021/07/30 08:23:36;;;;;;;21.60;18.45;;;11.30;99.90;;;;;;4976993;28;20037;-69
2021/07/30 08:26:04;;;;;;;22.92;20.27;;;11.30;99.90;;;;;;4975910;28;20030;-69
2021/07/30 08:28:32;;;;;;;18.15;14.68;;;11.30;99.90;;;;;;4977010;28;20060;-70
2021/07/30 08:30:59;;;;;;;20.45;18.33;;;11.30;99.90;;;;;;4976628;28;20026;-69
2021/07/30 08:33:26;;;;;;;9.63;6.68;;;11.30;99.90;;;;;;4975495;28;20107;-69
2021/07/30 08:35:54;;;;;;;7.97;5.78;;;11.30;99.90;;;;;;4975160;28;20502;-69
2021/07/30 08:38:24;;;;;;;6.32;5.30;;;11.30;99.90;;;;;;4975576;28;20030;-69
2021/07/30 08:40:51;;;;;;;14.30;11.13;;;11.20;99.90;;;;;;4975597;28;20261;-68
2021/07/30 08:43:18;;;;;;;10.25;6.53;;;11.30;99.90;;;;;;4975781;28;20109;-69
2021/07/30 08:45:52;;;;;;;25.00;16.08;;;11.20;99.90;;;;;;4974026;28;20492;-68
2021/07/30 08:48:19;;;;;;;9.70;6.82;;;11.30;99.90;;;;;;4975977;28;20523;-69
2021/07/30 08:50:48;;;;;;;12.90;8.00;;;11.20;99.90;;;;;;4975650;28;20034;-69
2021/07/30 08:53:26;;;;;;;17.45;12.13;;;11.20;99.90;;;;;;4975405;28;20018;-68
2021/07/30 08:55:54;;;;;;;14.02;10.65;;;11.20;99.90;;;;;;4975179;28;20101;-69
2021/07/30 08:58:22;;;;;;;10.52;6.95;;;11.10;99.90;;;;;;4975614;28;20034;-69
2021/07/30 09:00:49;;;;;;;11.10;8.32;;;11.10;99.90;;;;;;4975406;28;20054;-70
2021/07/30 09:03:17;;;;;;;7.25;6.00;;;11.00;99.90;;;;;;4975370;28;20014;-70
2021/07/30 09:05:48;;;;;;;7.18;6.47;;;11.00;99.90;;;;;;4975206;28;20049;-69
2021/07/30 09:08:24;;;;;;;8.60;6.80;;;11.00;99.90;;;;;;4975322;28;20328;-71
2021/07/30 09:10:51;;;;;;;10.93;7.10;;;10.90;99.90;;;;;;4975325;28;20050;-69
2021/07/30 09:13:28;;;;;;;11.25;7.32;;;10.90;99.90;;;;;;4973725;28;20129;-70
2021/07/30 09:16:12;;;;;;;11.32;8.27;;;10.90;99.90;;;;;;4973561;28;20023;-69
2021/07/30 09:18:42;;;;;;;12.27;8.45;;;10.80;99.90;;;;;;4975206;28;20019;-70
2021/07/30 09:21:43;;;;;;;9.45;7.75;;;10.80;99.90;;;;;;4975170;28;20030;-71
2021/07/30 09:24:16;;;;;;;10.05;7.45;;;10.60;99.90;;;;;;4971419;28;20066;-70
2021/07/30 09:26:56;;;;;;;13.02;8.88;;;10.70;99.90;;;;;;4974927;28;20030;-70
2021/07/30 09:29:32;;;;;;;16.83;10.25;;;10.70;99.90;;;;;;4975173;28;20491;-70
2021/07/30 09:32:14;;;;;;;14.30;10.55;;;10.60;99.90;;;;;;4975112;28;20034;-70
2021/07/30 09:34:50;;;;;;;11.48;9.25;;;10.60;99.90;;;;;;4973698;28;20034;-70
2021/07/30 09:37:27;;;;;;;15.25;9.50;;;10.60;99.90;;;;;;4973518;28;20034;-70
2021/07/30 09:39:55;;;;;;;13.70;8.90;;;10.50;99.90;;;;;;4974986;28;20526;-70
2021/07/30 09:42:29;;;;;;;11.43;8.68;;;10.50;99.90;;;;;;4974700;28;20038;-69
2021/07/30 09:45:03;;;;;;;12.15;9.48;;;10.50;99.90;;;;;;4973561;28;20030;-68
2021/07/30 09:47:35;;;;;;;13.02;8.57;;;10.40;99.90;;;;;;4975011;28;20019;-70
2021/07/30 09:50:05;;;;;;;10.63;8.48;;;10.40;99.90;;;;;;4973542;28;20027;-69
2021/07/30 09:52:36;;;;;;;12.80;8.38;;;10.40;99.90;;;;;;4973247;28;20062;-70
2021/07/30 09:55:08;;;;;;;11.68;8.98;;;10.30;99.90;;;;;;4974692;28;20046;-70
2021/07/30 09:57:37;;;;;;;12.07;8.50;;;10.30;99.90;;;;;;4973608;28;20110;-71
2021/07/30 10:00:15;;;;;;;11.02;8.27;;;10.30;99.90;;;;;;4974080;28;20042;-70
2021/07/30 10:02:44;;;;;;;13.15;8.75;;;10.20;99.90;;;;;;4974172;28;20415;-70
2021/07/30 10:05:16;;;;;;;11.13;8.48;;;10.20;99.90;;;;;;4974267;28;20058;-70
2021/07/30 10:07:44;;;;;;;10.00;8.02;;;10.10;99.90;;;;;;4974341;28;20102;-70
2021/07/30 10:10:25;;;;;;;8.52;7.60;;;10.10;99.90;;;;;;4974021;28;20031;-70
2021/07/30 10:12:59;;;;;;;9.60;7.45;;;10.10;99.90;;;;;;4973838;28;20055;-70
2021/07/30 10:15:27;;;;;;;9.70;8.27;;;10.10;99.90;;;;;;4974283;28;20037;-70
2021/07/30 10:17:56;;;;;;;9.73;7.50;;;10.10;99.90;;;;;;4972405;28;20061;-70
2021/07/30 10:20:26;;;;;;;10.93;7.60;;;10.10;99.90;;;;;;4973821;28;20026;-69
2021/07/30 10:23:23;;;;;;;9.07;7.38;;;10.10;99.90;;;;;;4973661;28;20023;-69
2021/07/30 10:25:59;;;;;;;8.50;6.95;;;10.10;99.90;;;;;;4957732;28;20031;-69
2021/07/30 10:28:29;;;;;;;8.48;7.18;;;10.10;99.90;;;;;;4973842;28;20042;-69
2021/07/30 10:30:58;;;;;;;8.90;8.00;;;10.00;99.90;;;;;;4972429;28;20023;-69
2021/07/30 10:33:36;;;;;;;12.20;8.10;;;10.10;99.90;;;;;;4972694;28;20110;-70
2021/07/30 10:36:06;;;;;;;12.85;10.50;;;10.10;99.90;;;;;;4973914;28;20054;-70
2021/07/30 10:38:34;;;;;;;12.68;9.57;;;10.10;99.90;;;;;;4975494;28;20372;-69
2021/07/30 10:41:08;;;;;;;11.30;9.23;;;10.00;99.90;;;;;;4977592;28;20443;-69
2021/07/30 10:43:50;;;;;;;11.73;10.25;;;10.00;99.90;;;;;;4977459;28;20023;-71
2021/07/30 10:46:23;;;;;;;13.32;10.65;;;10.00;99.90;;;;;;4977351;28;20047;-71
2021/07/30 10:48:53;;;;;;;11.48;8.48;;;10.00;99.90;;;;;;4977441;28;20441;-71
2021/07/30 10:51:27;;;;;;;8.70;7.57;;;10.00;99.90;;;;;;4977202;28;20031;-71
2021/07/30 10:54:05;;;;;;;10.38;8.55;;;10.00;99.90;;;;;;4977371;28;20023;-70
2021/07/30 10:56:33;;;;;;;10.40;8.32;;;10.00;99.90;;;;;;4977086;28;20023;-70
2021/07/30 10:59:01;;;;;;;9.45;7.97;;;9.90;99.90;;;;;;4977263;28;20037;-71
2021/07/30 11:01:31;;;;;;;9.10;7.90;;;9.90;99.90;;;;;;4977560;28;20025;-70
2021/07/30 11:04:05;;;;;;;10.18;8.70;;;9.90;99.90;;;;;;4976932;28;20023;-69
2021/07/30 11:06:38;;;;;;;10.15;7.72;;;9.80;99.90;;;;;;4976966;28;20039;-70
2021/07/30 11:09:06;;;;;;;10.43;8.10;;;9.80;99.90;;;;;;4977772;28;20054;-70
2021/07/30 11:11:46;;;;;;;10.98;9.40;;;9.90;99.90;;;;;;4976712;28;20045;-71
2021/07/30 11:14:46;;;;;;;9.48;8.45;;;9.90;99.90;;;;;;4976011;28;20034;-70
2021/07/30 11:17:14;;;;;;;12.68;9.40;;;9.80;99.90;;;;;;4974468;28;20065;-71
2021/07/30 11:19:49;;;;;;;8.90;7.80;;;9.80;99.90;;;;;;4975364;28;20038;-71
2021/07/30 11:22:19;;;;;;;8.75;7.85;;;9.70;99.90;;;;;;4976742;28;20507;-70
2021/07/30 11:24:50;;;;;;;10.57;7.72;;;9.70;99.90;;;;;;4976491;28;20034;-71
2021/07/30 11:27:19;;;;;;;9.23;8.13;;;9.60;99.90;;;;;;4976766;28;20121;-71
2021/07/30 11:29:49;;;;;;;10.77;7.82;;;9.60;99.90;;;;;;4975212;28;20073;-71
2021/07/30 11:32:18;;;;;;;7.07;6.47;;;9.50;99.90;;;;;;4976774;28;20042;-71
2021/07/30 11:34:48;;;;;;;8.85;5.93;;;9.60;99.90;;;;;;4976534;28;20062;-70
2021/07/30 11:37:26;;;;;;;6.78;6.00;;;9.60;99.90;;;;;;4976332;28;20023;-69
2021/07/30 11:39:55;;;;;;;7.07;5.63;;;9.60;99.90;;;;;;4976402;28;20031;-70
2021/07/30 11:42:38;;;;;;;6.43;5.75;;;9.60;99.90;;;;;;4976402;28;20019;-69
2021/07/30 11:45:09;;;;;;;5.65;5.03;;;9.70;99.90;;;;;;4976654;28;20019;-69
2021/07/30 11:47:37;;;;;;;;;;;9.70;99.90;;;;;;4976966;28;20030;-70
2021/07/30 11:50:17;;;;;;;8.50;5.40;;;9.80;99.90;;;;;;4973801;28;19906;-71
2021/07/30 11:52:45;;;;;;;7.43;5.30;;;9.80;99.90;;;;;;4976272;28;20046;-70
2021/07/30 11:55:20;;;;;;;7.32;4.85;;;9.80;99.90;;;;;;4974816;28;20066;-68
2021/07/30 11:57:52;;;;;;;5.78;5.03;;;9.90;99.90;;;;;;4976122;28;20027;-70
2021/07/30 12:00:28;;;;;;;5.22;4.70;;;10.00;99.90;;;;;;4976322;28;20364;-70
2021/07/30 12:02:56;;;;;;;7.93;4.93;;;10.00;99.90;;;;;;4976082;28;20037;-71
2021/07/30 12:05:40;;;;;;;5.20;4.70;;;10.10;99.90;;;;;;4976344;28;20030;-70
2021/07/30 12:08:08;;;;;;;7.03;5.20;;;10.20;99.90;;;;;;4975958;28;20030;-71
2021/07/30 12:10:37;;;;;;;4.95;4.43;;;10.30;99.90;;;;;;4976004;28;20459;-71
2021/07/30 12:13:06;;;;;;;5.47;4.57;;;10.40;99.90;;;;;;4975610;28;20093;-70
2021/07/30 12:15:34;;;;;;;5.88;4.65;;;10.50;99.80;;;;;;4975761;28;20027;-72
2021/07/30 12:18:03;;;;;;;4.55;4.15;;;10.70;99.00;;;;;;4975556;28;20027;-71
2021/07/30 12:20:45;;;;;;;4.63;4.30;;;10.60;98.50;;;;;;4975561;28;20070;-72
2021/07/30 12:23:17;;;;;;;4.13;3.83;;;10.70;98.30;;;;;;4975288;28;20034;-71
2021/07/30 12:25:49;;;;;;;4.13;3.80;;;10.80;98.10;;;;;;4974258;28;20110;-72
2021/07/30 12:28:18;;;;;;;4.70;4.30;;;10.90;98.10;;;;;;4974244;28;20031;-71
2021/07/30 12:30:54;;;;;;;4.45;4.15;;;10.90;98.20;;;;;;4974089;28;20019;-71
2021/07/30 12:33:23;;;;;;;4.72;4.28;;;10.90;98.00;;;;;;4975384;28;20506;-70
2021/07/30 12:36:08;;;;;;;6.55;4.65;;;11.00;97.50;;;;;;4975324;28;20019;-70
2021/07/30 12:39:03;;;;;;;4.15;3.80;;;11.00;97.20;;;;;;4975819;28;20041;-70
2021/07/30 12:41:31;;;;;;;4.70;3.70;;;11.00;97.00;;;;;;4974212;28;20019;-71
2021/07/30 12:44:15;;;;;;;4.05;3.75;;;11.00;96.70;;;;;;4975320;28;20034;-70
2021/07/30 12:46:44;;;;;;;3.80;3.50;;;11.00;96.70;;;;;;4975307;28;20027;-70
2021/07/30 12:49:13;;;;;;;5.07;3.60;;;11.00;96.30;;;;;;4973893;28;20026;-71
2021/07/30 12:51:43;;;;;;;4.55;3.90;;;11.10;96.20;;;;;;4975340;28;20057;-71
2021/07/30 12:54:13;;;;;;;5.05;4.20;;;11.10;95.80;;;;;;4975073;28;20062;-70
2021/07/30 12:56:57;;;;;;;5.07;4.50;;;11.10;95.70;;;;;;4974987;28;20125;-71